Terminal Aerodrome Forecast
Issued by NWS

Home | Current Version | Previous Version | Text Only | Print | Product List | Glossary On
Versions: 1 2 3 4 5 6 7 8 9 10 11 12 13 14
056
FTAK31 PAJN 271135
TAFAKT
TAF
PAKT 271135Z 2712/2812 16008KT P6SM -RA SCT015 OVC025 WS020/12035KT
      TEMPO 2712/2716 4SM -RA BR OVC015
     FM271600 14012G20KT 4SM -RA BR BKN015 OVC022 WS015/16030KT
     FM272100 14015G25KT 2SM RA BR OVC015 WS020/16035KT
     FM280200 13009KT 5SM -SHRA BR BKN020 OVC030 WS020/15030KT
     FM280900 17007KT 4SM -RA BR OVC020
      AMD LTD TO CLD VIS AND WIND 2712/2715=

USA.gov is the U.S. government's official web portal to all federal, state and local government web resources and services.